Time;durP1;ratioP1;P1;durP2;ratioP2;P2;SDS_P1;SDS_P2;PMS_P1;PMS_P2;Temp;Humidity;BMP_temperature;BMP_pressure;BME280_temperature;BME280_humidity;BME280_pressure;Samples;Min_cycle;Max_cycle;Signal;HPM_P1;HPM_P2
2021/03/11 00:00:43;;;;;;;73.00;38.57;;;-5.10;86.40;;;;;;5041580;28;20712;-82
2021/03/11 00:03:13;;;;;;;77.23;37.30;;;-5.20;86.40;;;;;;5035180;28;20520;-83
2021/03/11 00:05:42;;;;;;;72.80;38.60;;;-5.20;86.30;;;;;;5031202;28;21001;-81
2021/03/11 00:08:11;;;;;;;62.23;36.40;;;-5.30;86.70;;;;;;5034898;28;20527;-81
2021/03/11 00:10:40;;;;;;;66.80;37.83;;;-5.10;88.10;;;;;;5023013;28;20489;-82
2021/03/11 00:13:09;;;;;;;67.40;38.70;;;-5.30;87.40;;;;;;5032157;28;20485;-83
2021/03/11 00:15:50;;;;;;;68.47;38.30;;;-5.40;87.20;;;;;;5022543;28;20465;-81
2021/03/11 00:18:18;;;;;;;72.07;39.23;;;-5.40;87.80;;;;;;5023246;28;20483;-82
2021/03/11 00:20:46;;;;;;;67.87;38.80;;;-5.50;87.50;;;;;;5035501;28;20480;-83
2021/03/11 00:23:31;;;;;;;72.23;38.93;;;-5.50;87.40;;;;;;5014226;28;20462;-83
2021/03/11 00:26:00;;;;;;;69.00;37.23;;;-5.50;88.30;;;;;;5030282;28;20500;-83
2021/03/11 00:28:30;;;;;;;77.23;40.30;;;-5.20;90.20;;;;;;5037091;28;21218;-81
2021/03/11 00:31:00;;;;;;;77.13;38.60;;;-4.80;90.20;;;;;;5008909;28;20546;-80
2021/03/11 00:33:28;;;;;;;71.40;37.83;;;-4.70;89.00;;;;;;5033866;28;20465;-82
2021/03/11 00:35:56;;;;;;;72.47;38.30;;;-4.60;88.30;;;;;;5024832;28;20478;-82
2021/03/11 00:38:23;;;;;;;72.77;38.27;;;-4.40;87.90;;;;;;5029217;28;20469;-82
2021/03/11 00:40:51;;;;;;;67.27;38.80;;;-4.20;87.00;;;;;;5038827;28;20532;-80
2021/03/11 00:43:19;;;;;;;69.57;39.30;;;-4.00;86.20;;;;;;5029405;28;20470;-81
2021/03/11 00:45:49;;;;;;;69.57;38.40;;;-3.90;85.60;;;;;;5033020;28;20217;-81
2021/03/11 00:48:18;;;;;;;68.33;37.53;;;-3.90;85.30;;;;;;5042285;28;20483;-82
2021/03/11 00:50:46;;;;;;;71.60;37.97;;;-3.90;85.00;;;;;;5077097;22;20517;-83
2021/03/11 00:53:14;;;;;;;65.90;37.67;;;-3.80;85.10;;;;;;5054924;28;20565;-83
2021/03/11 00:55:42;;;;;;;69.93;36.27;;;-3.80;85.00;;;;;;5054766;28;20199;-80
2021/03/11 00:58:10;;;;;;;66.73;38.23;;;-3.80;84.90;;;;;;5049637;28;20188;-83
2021/03/11 01:00:39;;;;;;;72.97;37.83;;;-3.70;84.80;;;;;;5034116;28;20459;-81
2021/03/11 01:03:10;;;;;;;69.70;38.07;;;-3.70;84.90;;;;;;5044598;28;20271;-83
2021/03/11 01:05:39;;;;;;;66.23;36.70;;;-3.70;84.90;;;;;;5054762;28;20433;-81
2021/03/11 01:08:10;;;;;;;71.47;38.23;;;-3.70;84.90;;;;;;5056008;28;20204;-84
2021/03/11 01:10:39;;;;;;;69.23;37.40;;;-3.70;84.90;;;;;;5054812;28;20406;-83
2021/03/11 01:13:07;;;;;;;69.63;37.90;;;-3.70;85.10;;;;;;5048706;28;20220;-82
2021/03/11 01:15:36;;;;;;;67.43;38.73;;;-3.60;85.10;;;;;;5044215;28;20228;-82
2021/03/11 01:18:05;;;;;;;67.60;38.40;;;-3.70;85.10;;;;;;5046925;28;20242;-81
2021/03/11 01:20:36;;;;;;;68.20;37.60;;;-3.70;85.20;;;;;;5043768;28;20538;-83
2021/03/11 01:23:05;;;;;;;65.83;37.27;;;-3.50;85.30;;;;;;5049107;28;20459;-81
2021/03/11 01:25:35;;;;;;;69.60;39.17;;;-3.70;85.20;;;;;;5047834;28;20233;-80
2021/03/11 01:28:03;;;;;;;74.93;36.53;;;-3.70;85.30;;;;;;5031006;28;20197;-82
2021/03/11 01:30:31;;;;;;;74.27;37.80;;;-3.70;85.20;;;;;;5041341;28;20198;-81
2021/03/11 01:33:00;;;;;;;62.03;37.57;;;-3.90;84.90;;;;;;5034321;28;20352;-81
2021/03/11 01:35:28;;;;;;;66.93;37.57;;;-4.00;85.30;;;;;;5046101;28;20216;-84
2021/03/11 01:37:56;;;;;;;63.53;37.57;;;-4.00;85.90;;;;;;5060479;28;20928;-84
2021/03/11 01:40:25;;;;;;;76.93;39.03;;;-4.00;86.40;;;;;;5052585;28;20195;-82
2021/03/11 01:42:54;;;;;;;73.00;39.83;;;-4.00;85.80;;;;;;5054816;28;20479;-82
2021/03/11 01:45:23;;;;;;;74.37;38.53;;;-4.10;85.90;;;;;;5049487;28;21021;-81
2021/03/11 01:47:51;;;;;;;67.97;38.70;;;-4.20;86.30;;;;;;5023957;28;20924;-82
2021/03/11 01:50:19;;;;;;;71.67;41.23;;;-4.30;85.80;;;;;;5053070;28;20220;-82
2021/03/11 01:52:47;;;;;;;69.37;39.00;;;-4.40;85.90;;;;;;5043584;28;20950;-84
2021/03/11 01:55:19;;;;;;;70.17;39.63;;;-4.60;86.40;;;;;;5050711;28;20218;-82
2021/03/11 01:57:51;;;;;;;70.13;39.33;;;-4.80;86.10;;;;;;5048399;28;21075;-84
2021/03/11 02:00:20;;;;;;;74.40;39.67;;;-4.90;86.40;;;;;;5049846;28;20501;-82
2021/03/11 02:02:50;;;;;;;68.07;38.93;;;-5.10;86.50;;;;;;5051635;28;20458;-82
2021/03/11 02:05:20;;;;;;;76.67;38.77;;;-5.20;86.80;;;;;;5046857;28;20476;-82
2021/03/11 02:07:48;;;;;;;65.80;37.40;;;-5.40;86.90;;;;;;5039592;28;20472;-82
2021/03/11 02:10:21;;;;;;;69.53;38.83;;;-5.50;87.30;;;;;;5059580;28;20514;-82
2021/03/11 02:13:20;;;;;;;65.07;36.83;;;-5.60;87.50;;;;;;5053380;28;20493;-82
2021/03/11 02:15:52;;;;;;;67.83;37.87;;;-5.70;87.80;;;;;;5031830;28;20464;-81
2021/03/11 02:18:26;;;;;;;70.60;37.27;;;-5.70;88.00;;;;;;5057117;28;20488;-81
2021/03/11 02:20:59;;;;;;;68.97;39.67;;;-5.80;88.90;;;;;;5047367;28;20575;-82
2021/03/11 02:24:10;;;;;;;72.80;39.53;;;-5.60;90.60;;;;;;5050276;28;20476;-82
2021/03/11 02:27:00;;;;;;;75.43;38.63;;;-5.70;90.80;;;;;;5059101;28;20441;-83
2021/03/11 02:29:32;;;;;;;71.63;40.13;;;-5.80;90.80;;;;;;5056457;28;20465;-82
2021/03/11 02:32:03;;;;;;;80.37;39.33;;;-5.80;90.50;;;;;;5057789;28;20478;-81
2021/03/11 02:34:35;;;;;;;79.17;39.80;;;-5.90;90.50;;;;;;5061898;28;20442;-82
2021/03/11 02:37:10;;;;;;;73.53;37.10;;;-6.00;90.50;;;;;;5045500;28;20464;-83
2021/03/11 02:39:42;;;;;;;69.83;37.07;;;-6.00;90.60;;;;;;5047092;28;20525;-83
2021/03/11 02:42:11;;;;;;;68.90;37.80;;;-5.90;91.00;;;;;;5044895;28;21042;-81
2021/03/11 02:44:41;;;;;;;71.07;38.70;;;-6.10;90.90;;;;;;5045594;28;20504;-82
2021/03/11 02:47:12;;;;;;;73.57;39.00;;;-6.10;91.20;;;;;;5044017;28;20453;-82
2021/03/11 02:49:42;;;;;;;75.17;40.57;;;-6.10;91.40;;;;;;5026578;28;20469;-83
2021/03/11 02:52:10;;;;;;;79.50;40.17;;;-6.10;92.10;;;;;;5054019;28;20497;-83
2021/03/11 02:54:39;;;;;;;75.27;38.73;;;-6.20;91.70;;;;;;5044568;28;20695;-82
2021/03/11 02:57:09;;;;;;;73.10;40.90;;;-6.10;92.50;;;;;;5057627;28;20581;-81
2021/03/11 02:59:37;;;;;;;77.33;39.80;;;-6.10;92.80;;;;;;5038697;28;20474;-82
2021/03/11 03:02:06;;;;;;;77.27;39.23;;;-5.80;92.80;;;;;;5046868;28;20825;-82
2021/03/11 03:04:37;;;;;;;80.53;42.23;;;-6.10;92.50;;;;;;5053374;28;20754;-82
2021/03/11 03:07:06;;;;;;;76.93;40.70;;;-6.10;92.60;;;;;;5062787;28;20528;-82
2021/03/11 03:09:35;;;;;;;74.97;40.63;;;-6.10;92.90;;;;;;5061292;28;20463;-82
2021/03/11 03:12:05;;;;;;;72.13;39.57;;;-6.00;93.10;;;;;;5050522;28;20503;-82
2021/03/11 03:14:33;;;;;;;79.93;42.40;;;-5.70;94.50;;;;;;5027373;28;20462;-81
2021/03/11 03:17:01;;;;;;;75.27;40.07;;;-5.60;93.90;;;;;;5045636;28;20460;-82
2021/03/11 03:19:30;;;;;;;76.90;39.97;;;-5.60;93.70;;;;;;5055400;28;20452;-82
2021/03/11 03:21:58;;;;;;;67.67;37.57;;;-5.50;93.80;;;;;;5048637;28;20460;-82
2021/03/11 03:24:27;;;;;;;68.13;37.47;;;-5.30;93.60;;;;;;5053485;28;20463;-82
2021/03/11 03:26:55;;;;;;;71.97;38.50;;;-5.30;93.60;;;;;;5028193;28;20458;-81
2021/03/11 03:29:23;;;;;;;69.97;38.63;;;-5.30;92.80;;;;;;5060017;28;20920;-83
2021/03/11 03:31:51;;;;;;;68.50;38.77;;;-5.20;92.80;;;;;;5056474;28;20484;-82
2021/03/11 03:34:19;;;;;;;71.80;38.03;;;-5.20;91.80;;;;;;5058410;28;20460;-81
2021/03/11 03:36:48;;;;;;;70.23;38.57;;;-5.10;91.90;;;;;;5038756;28;20465;-82
2021/03/11 03:39:19;;;;;;;73.87;39.00;;;-5.20;91.80;;;;;;5052168;28;21011;-82
2021/03/11 03:41:49;;;;;;;70.57;38.77;;;-5.30;92.10;;;;;;5055786;28;20452;-83
2021/03/11 03:44:21;;;;;;;75.87;38.50;;;-5.10;92.20;;;;;;5043032;28;20459;-82
2021/03/11 03:46:51;;;;;;;69.40;38.07;;;-5.10;91.90;;;;;;5048337;28;20470;-82
2021/03/11 03:49:20;;;;;;;71.83;38.27;;;-5.10;91.40;;;;;;5049029;28;20433;-80
2021/03/11 03:51:53;;;;;;;66.83;37.07;;;-5.20;91.00;;;;;;5051791;28;20984;-81
2021/03/11 03:54:24;;;;;;;75.10;38.50;;;-5.20;90.90;;;;;;5041301;28;20578;-81
2021/03/11 03:56:57;;;;;;;67.37;37.73;;;-5.20;91.50;;;;;;5051507;28;20488;-83
2021/03/11 03:59:27;;;;;;;69.73;35.50;;;-5.20;91.30;;;;;;5037921;28;20704;-81
2021/03/11 04:01:57;;;;;;;75.47;37.33;;;-5.30;91.30;;;;;;5045516;28;20485;-82
2021/03/11 04:04:30;;;;;;;63.57;35.97;;;-5.30;91.40;;;;;;5034833;28;20449;-81
2021/03/11 04:07:01;;;;;;;68.47;37.30;;;-5.40;91.00;;;;;;5035995;28;21033;-81
2021/03/11 04:09:30;;;;;;;71.33;37.47;;;-5.50;91.20;;;;;;5041676;28;20803;-81
2021/03/11 04:11:59;;;;;;;66.60;37.40;;;-5.50;91.30;;;;;;5048673;28;20480;-82
2021/03/11 04:14:28;;;;;;;69.47;37.10;;;-5.70;91.40;;;;;;5042214;28;20494;-82
2021/03/11 04:16:56;;;;;;;69.53;36.33;;;-5.80;91.80;;;;;;5051403;28;20466;-82
2021/03/11 04:19:26;;;;;;;76.23;38.43;;;-5.80;92.60;;;;;;5047851;28;20967;-82
2021/03/11 04:21:54;;;;;;;73.60;37.83;;;-5.80;92.80;;;;;;5052836;28;20487;-82
2021/03/11 04:24:23;;;;;;;85.17;42.57;;;-5.90;92.60;;;;;;5042650;28;20469;-82
2021/03/11 04:26:51;;;;;;;79.93;42.90;;;-5.90;92.90;;;;;;5041905;28;20469;-83
2021/03/11 04:29:20;;;;;;;80.00;42.27;;;-5.90;93.40;;;;;;5035010;28;20461;-82
2021/03/11 04:31:48;;;;;;;80.80;43.47;;;-5.90;93.10;;;;;;5052284;28;20462;-80
2021/03/11 04:34:17;;;;;;;67.30;37.77;;;-5.70;94.00;;;;;;5050290;28;20635;-83
2021/03/11 04:36:45;;;;;;;69.63;35.93;;;-5.70;93.80;;;;;;5042316;28;20493;-82
2021/03/11 04:39:13;;;;;;;74.90;39.50;;;-5.60;94.10;;;;;;5046918;28;20466;-82
2021/03/11 04:41:42;;;;;;;68.47;35.93;;;-5.40;94.00;;;;;;5055160;28;20522;-84
2021/03/11 04:44:10;;;;;;;68.57;38.47;;;-5.30;93.60;;;;;;5044888;28;20486;-83
2021/03/11 04:46:41;;;;;;;66.13;36.37;;;-5.40;92.40;;;;;;5043401;28;21106;-82
2021/03/11 04:49:12;;;;;;;69.33;35.83;;;-5.30;92.70;;;;;;5048508;28;20486;-83
2021/03/11 04:51:40;;;;;;;67.93;36.77;;;-5.30;92.80;;;;;;5039650;28;20481;-84
2021/03/11 04:54:08;;;;;;;63.77;36.53;;;-5.20;92.70;;;;;;5046254;28;20464;-81
2021/03/11 04:56:53;;;;;;;62.27;34.57;;;-5.10;92.80;;;;;;5043276;28;20517;-82
2021/03/11 04:59:21;;;;;;;66.70;34.97;;;-5.20;92.20;;;;;;5041665;28;20502;-81
2021/03/11 05:01:52;;;;;;;64.93;34.23;;;-5.20;92.30;;;;;;5032769;28;20461;-82
2021/03/11 05:04:22;;;;;;;66.47;35.43;;;-5.20;92.60;;;;;;5054570;28;20464;-82
2021/03/11 05:06:50;;;;;;;68.13;35.00;;;-5.20;92.80;;;;;;5061273;28;20529;-81
2021/03/11 05:09:19;;;;;;;67.53;35.57;;;-5.10;92.60;;;;;;5058395;28;20568;-82
2021/03/11 05:11:48;;;;;;;64.50;35.70;;;-5.00;92.20;;;;;;5059669;28;20455;-82
2021/03/11 05:14:17;;;;;;;66.83;36.77;;;-5.00;92.30;;;;;;5065423;28;20488;-81
2021/03/11 05:16:45;;;;;;;61.60;33.87;;;-4.80;92.30;;;;;;5052781;28;20533;-82
2021/03/11 05:19:14;;;;;;;62.03;33.40;;;-4.90;92.10;;;;;;5054138;28;20492;-84
2021/03/11 05:21:42;;;;;;;63.33;33.90;;;-4.80;92.10;;;;;;5050270;28;20471;-81
2021/03/11 05:24:12;;;;;;;62.83;34.43;;;-4.70;91.60;;;;;;5045202;28;20474;-81
2021/03/11 05:26:41;;;;;;;63.13;35.23;;;-4.60;91.30;;;;;;5059167;28;20611;-85
2021/03/11 05:29:13;;;;;;;64.53;35.17;;;-4.60;90.90;;;;;;5054646;28;20696;-81
2021/03/11 05:31:42;;;;;;;63.73;35.47;;;-4.60;91.10;;;;;;5054117;28;20459;-82
2021/03/11 05:34:12;;;;;;;67.40;35.13;;;-4.40;91.10;;;;;;5034411;28;20861;-82
2021/03/11 05:36:40;;;;;;;61.17;34.50;;;-4.40;90.90;;;;;;5047108;28;21194;-83
2021/03/11 05:39:09;;;;;;;67.33;34.67;;;-4.30;90.70;;;;;;5052534;28;20450;-82
2021/03/11 05:41:44;;;;;;;61.77;35.27;;;-4.20;90.40;;;;;;5045539;28;20883;-83
2021/03/11 05:44:14;;;;;;;58.50;33.93;;;-4.10;90.20;;;;;;5055742;28;20497;-85
2021/03/11 05:46:49;;;;;;;67.53;37.33;;;-4.10;90.10;;;;;;5045819;28;20964;-82
2021/03/11 05:49:18;;;;;;;63.70;34.60;;;-4.10;90.00;;;;;;5048838;28;20283;-83
2021/03/11 05:51:47;;;;;;;56.50;32.80;;;-3.90;90.00;;;;;;5067035;28;21242;-81
2021/03/11 05:54:15;;;;;;;63.93;35.80;;;-3.90;89.40;;;;;;5053961;28;20688;-81
2021/03/11 05:56:44;;;;;;;65.17;36.40;;;-3.80;88.80;;;;;;5051273;28;20215;-82
2021/03/11 05:59:17;;;;;;;66.90;35.17;;;-3.70;88.60;;;;;;5049923;28;20227;-84
2021/03/11 06:01:47;;;;;;;67.27;32.87;;;-3.60;88.30;;;;;;5048686;28;20218;-81
2021/03/11 06:04:16;;;;;;;66.10;36.70;;;-3.60;87.90;;;;;;5026363;28;20597;-80
2021/03/11 06:06:47;;;;;;;69.90;36.93;;;-3.50;87.80;;;;;;5039614;28;20615;-82
2021/03/11 06:09:17;;;;;;;63.63;35.10;;;-3.40;87.40;;;;;;5047129;28;20198;-82
2021/03/11 06:11:48;;;;;;;68.90;37.23;;;-3.40;87.70;;;;;;5051789;28;20209;-82
2021/03/11 06:14:16;;;;;;;63.23;36.33;;;-3.20;87.70;;;;;;5051045;28;20224;-82
2021/03/11 06:16:50;;;;;;;69.93;36.77;;;-3.20;87.60;;;;;;5060606;28;20196;-82
2021/03/11 06:19:19;;;;;;;66.20;34.70;;;-3.10;87.10;;;;;;5054739;28;20189;-82
2021/03/11 06:21:47;;;;;;;63.40;34.90;;;-3.00;86.70;;;;;;5062366;28;20198;-82
2021/03/11 06:24:14;;;;;;;68.67;36.90;;;-2.90;86.50;;;;;;5055087;28;20485;-82
2021/03/11 06:26:42;;;;;;;63.00;35.33;;;-2.80;86.40;;;;;;5053518;28;20187;-81
2021/03/11 06:29:10;;;;;;;59.73;35.60;;;-2.70;86.30;;;;;;5051313;28;20331;-81
2021/03/11 06:31:40;;;;;;;55.47;32.40;;;-2.70;85.60;;;;;;5053085;28;20194;-81
2021/03/11 06:34:20;;;;;;;60.10;35.33;;;-2.50;85.80;;;;;;5060709;28;20499;-81
2021/03/11 06:36:50;;;;;;;68.17;35.37;;;-2.50;85.50;;;;;;5055255;28;20228;-80
2021/03/11 06:39:25;;;;;;;64.17;34.83;;;-2.10;85.80;;;;;;5051404;28;20206;-83
2021/03/11 06:41:54;;;;;;;65.70;36.27;;;-2.20;85.50;;;;;;5048817;28;20228;-83
2021/03/11 06:44:34;;;;;;;59.90;33.47;;;-2.10;85.40;;;;;;5034132;28;20202;-81
2021/03/11 06:47:04;;;;;;;59.30;33.10;;;-2.00;85.00;;;;;;5039400;28;20303;-80
2021/03/11 06:49:33;;;;;;;65.50;33.97;;;-2.00;84.70;;;;;;5043446;28;20213;-82
2021/03/11 06:52:10;;;;;;;65.90;35.83;;;-1.90;84.40;;;;;;5038476;28;20210;-82
2021/03/11 06:54:58;;;;;;;62.10;33.70;;;-1.80;84.40;;;;;;5039904;28;20217;-82
2021/03/11 06:57:33;;;;;;;63.53;33.43;;;-1.80;84.30;;;;;;5031986;28;20190;-83
2021/03/11 07:00:04;;;;;;;61.00;35.07;;;-1.70;84.40;;;;;;5026127;28;20754;-84
2021/03/11 07:02:33;;;;;;;57.33;34.60;;;-1.70;84.50;;;;;;5038215;28;20206;-84
2021/03/11 07:05:13;;;;;;;65.83;35.60;;;-1.60;84.40;;;;;;5036444;28;20319;-83
2021/03/11 07:07:42;;;;;;;64.03;35.30;;;-1.50;84.30;;;;;;5029807;28;20201;-84
2021/03/11 07:10:23;;;;;;;54.50;29.40;;;-1.30;84.40;;;;;;5026430;28;21083;-82
2021/03/11 07:12:55;;;;;;;59.13;32.77;;;-1.30;84.30;;;;;;5026025;28;20596;-82
2021/03/11 07:15:24;;;;;;;59.73;34.13;;;-1.20;84.00;;;;;;5025175;28;20290;-81
2021/03/11 07:17:53;;;;;;;60.40;35.20;;;-1.10;83.80;;;;;;5030455;28;20210;-83
2021/03/11 07:20:22;;;;;;;56.33;33.10;;;-1.00;83.60;;;;;;5020315;28;20574;-83
2021/03/11 07:23:05;;;;;;;59.27;32.57;;;-0.90;83.50;;;;;;5022771;28;20538;-81
2021/03/11 07:25:34;;;;;;;59.47;32.90;;;-0.80;83.50;;;;;;5023815;28;20257;-82
2021/03/11 07:28:03;;;;;;;57.57;33.73;;;-0.70;83.40;;;;;;5036531;28;20206;-82
2021/03/11 07:30:32;;;;;;;58.70;32.33;;;-0.60;83.30;;;;;;5030658;28;20317;-83
2021/03/11 07:33:03;;;;;;;60.17;33.23;;;-0.40;83.10;;;;;;5020133;28;20240;-80
2021/03/11 07:35:33;;;;;;;52.63;32.30;;;0.00;82.90;;;;;;5020962;28;20276;-83
2021/03/11 07:38:02;;;;;;;49.47;31.40;;;-0.10;82.10;;;;;;5024871;28;20212;-82
2021/03/11 07:40:33;;;;;;;54.10;30.47;;;0.00;82.10;;;;;;5030105;28;20491;-81
2021/03/11 07:43:03;;;;;;;56.17;31.20;;;0.10;82.00;;;;;;5032218;28;20208;-82
2021/03/11 07:45:31;;;;;;;49.70;28.53;;;0.40;81.70;;;;;;5027655;28;20421;-81
2021/03/11 07:48:02;;;;;;;57.33;30.03;;;0.30;81.50;;;;;;5031646;28;20204;-82
2021/03/11 07:50:31;;;;;;;50.00;28.40;;;0.40;81.20;;;;;;5028449;28;20201;-84
2021/03/11 07:53:00;;;;;;;41.83;26.77;;;0.70;80.80;;;;;;5028150;28;20241;-84
2021/03/11 07:55:29;;;;;;;46.00;26.07;;;0.70;80.40;;;;;;5020643;28;20198;-85
2021/03/11 07:58:01;;;;;;;37.73;22.50;;;0.80;80.10;;;;;;5024115;28;20206;-84
2021/03/11 08:00:30;;;;;;;37.47;23.33;;;1.00;79.90;;;;;;5035384;28;20266;-84
2021/03/11 08:03:01;;;;;;;37.07;20.97;;;1.20;79.60;;;;;;5028755;28;20206;-81
2021/03/11 08:05:31;;;;;;;34.13;20.53;;;1.40;78.80;;;;;;5024811;28;20542;-83
2021/03/11 08:08:13;;;;;;;26.03;17.47;;;1.50;78.20;;;;;;5007213;28;20202;-81
2021/03/11 08:10:49;;;;;;;28.17;16.37;;;1.70;77.60;;;;;;5025361;28;20206;-82
2021/03/11 08:13:36;;;;;;;31.23;17.80;;;1.80;77.30;;;;;;5038800;28;20276;-84
2021/03/11 08:16:22;;;;;;;29.87;18.30;;;1.80;77.00;;;;;;5021548;28;20202;-82
2021/03/11 08:18:51;;;;;;;27.17;16.67;;;1.90;76.80;;;;;;5029134;28;20488;-84
2021/03/11 08:21:45;;;;;;;24.50;15.23;;;2.10;76.40;;;;;;5023772;28;20263;-82
2021/03/11 08:24:42;;;;;;;21.10;14.70;;;2.10;75.50;;;;;;5021937;28;20511;-82
2021/03/11 08:27:43;;;;;;;22.30;14.97;;;2.10;75.10;;;;;;5027183;28;20214;-81
2021/03/11 08:30:52;;;;;;;20.17;13.47;;;2.20;74.90;;;;;;5040772;28;20293;-84
2021/03/11 08:33:54;;;;;;;20.70;13.23;;;2.20;74.30;;;;;;5043831;28;20237;-82
2021/03/11 08:36:40;;;;;;;23.00;14.30;;;2.00;73.80;;;;;;5015419;28;20218;-82
2021/03/11 08:39:37;;;;;;;24.03;14.03;;;1.90;74.00;;;;;;5026560;28;20868;-84
2021/03/11 08:42:48;;;;;;;25.03;15.27;;;1.90;74.10;;;;;;5021481;28;20197;-85
2021/03/11 08:45:53;;;;;;;22.70;15.30;;;1.90;74.50;;;;;;5016612;28;20198;-82
2021/03/11 08:48:23;;;;;;;25.03;16.37;;;2.00;74.10;;;;;;5018517;28;20293;-82
2021/03/11 08:50:52;;;;;;;22.13;16.17;;;2.10;74.20;;;;;;5014998;28;20207;-81
2021/03/11 08:53:45;;;;;;;24.07;15.93;;;2.20;73.90;;;;;;5021735;28;20525;-82
2021/03/11 08:56:41;;;;;;;27.27;16.90;;;2.20;73.50;;;;;;5023629;28;20218;-83
2021/03/11 08:59:11;;;;;;;23.93;16.23;;;2.30;73.60;;;;;;4966206;28;20733;-80
2021/03/11 09:01:42;;;;;;;25.17;15.53;;;2.30;73.60;;;;;;5017071;28;20202;-83
2021/03/11 09:04:41;;;;;;;26.97;15.20;;;2.40;72.70;;;;;;5021993;28;20206;-83
2021/03/11 09:07:13;;;;;;;23.03;15.33;;;2.30;72.40;;;;;;5026224;28;21013;-80
2021/03/11 09:09:44;;;;;;;22.77;15.80;;;2.30;72.30;;;;;;5016748;28;20680;-83
2021/03/11 09:12:15;;;;;;;24.73;15.97;;;2.30;72.60;;;;;;5022386;28;20211;-80
2021/03/11 09:14:45;;;;;;;22.23;16.30;;;2.30;72.20;;;;;;5026571;28;20351;-84
2021/03/11 09:17:15;;;;;;;23.20;15.87;;;2.40;71.70;;;;;;5036644;28;20436;-80
2021/03/11 09:19:45;;;;;;;24.90;14.70;;;2.50;71.60;;;;;;5036000;28;20554;-82
2021/03/11 09:22:25;;;;;;;25.70;15.53;;;2.60;71.50;;;;;;5035108;28;20214;-81
2021/03/11 09:25:04;;;;;;;20.13;14.70;;;2.60;71.50;;;;;;5029316;28;20194;-82
2021/03/11 09:27:33;;;;;;;22.97;14.63;;;2.60;71.20;;;;;;5038221;28;20229;-82
2021/03/11 09:30:23;;;;;;;21.10;15.30;;;2.60;70.80;;;;;;5038500;28;20496;-82
2021/03/11 09:32:52;;;;;;;25.53;16.20;;;2.70;71.30;;;;;;5027571;28;20229;-84
2021/03/11 09:35:24;;;;;;;22.60;15.13;;;2.60;70.40;;;;;;5020142;28;20550;-83
2021/03/11 09:37:55;;;;;;;21.93;14.37;;;2.70;70.80;;;;;;5022826;28;20210;-82
2021/03/11 09:40:26;;;;;;;20.23;13.67;;;2.70;70.90;;;;;;5030005;28;20249;-81
2021/03/11 09:43:05;;;;;;;23.43;14.73;;;2.80;70.60;;;;;;5031241;28;20227;-82
2021/03/11 09:45:35;;;;;;;20.63;14.43;;;2.90;70.20;;;;;;5037105;28;20379;-82
2021/03/11 09:48:06;;;;;;;21.93;13.97;;;2.90;70.70;;;;;;5034193;28;20187;-84
2021/03/11 09:50:35;;;;;;;24.07;14.73;;;2.90;70.50;;;;;;5041506;28;20353;-82
2021/03/11 09:53:03;;;;;;;21.70;15.03;;;3.00;70.00;;;;;;5039402;28;20245;-81
2021/03/11 09:55:32;;;;;;;20.10;14.77;;;3.00;69.80;;;;;;5035157;28;20549;-83
2021/03/11 09:57:59;;;;;;;22.53;15.23;;;3.00;69.80;;;;;;5031932;28;20207;-83
2021/03/11 10:00:44;;;;;;;22.13;15.30;;;3.00;69.30;;;;;;5042129;28;20199;-83
2021/03/11 10:03:24;;;;;;;19.43;14.73;;;3.10;69.40;;;;;;5041233;28;20524;-82
2021/03/11 10:05:55;;;;;;;23.23;15.60;;;3.20;69.40;;;;;;5021962;28;20239;-80
2021/03/11 10:08:29;;;;;;;21.77;14.40;;;3.10;68.80;;;;;;5033703;28;20302;-80
2021/03/11 10:11:11;;;;;;;18.93;13.77;;;3.20;68.50;;;;;;5033398;28;20252;-81
2021/03/11 10:13:42;;;;;;;21.87;15.00;;;3.00;68.00;;;;;;5033878;28;20278;-82
2021/03/11 10:16:13;;;;;;;25.83;15.97;;;2.90;68.00;;;;;;5027541;28;20701;-80
2021/03/11 10:19:00;;;;;;;21.70;15.70;;;2.90;68.60;;;;;;5035570;28;20194;-80
2021/03/11 10:21:29;;;;;;;19.17;13.80;;;2.90;68.00;;;;;;5039931;28;20746;-81
2021/03/11 10:24:00;;;;;;;22.23;15.60;;;2.90;67.90;;;;;;5046790;28;21818;-81
2021/03/11 10:26:35;;;;;;;21.00;14.83;;;2.90;68.00;;;;;;5040303;28;20569;-83
2021/03/11 10:29:05;;;;;;;22.53;14.73;;;3.00;68.60;;;;;;5043687;28;20203;-83
2021/03/11 10:31:33;;;;;;;20.93;14.60;;;3.10;67.90;;;;;;5039293;28;20201;-83
2021/03/11 10:34:08;;;;;;;23.33;15.03;;;3.20;68.10;;;;;;5024219;28;20239;-82
2021/03/11 10:36:37;;;;;;;23.90;14.80;;;3.30;67.70;;;;;;5007384;28;20229;-82
2021/03/11 10:39:10;;;;;;;20.43;14.13;;;3.30;67.10;;;;;;5027657;28;20224;-83
2021/03/11 10:41:40;;;;;;;20.67;14.83;;;3.30;66.90;;;;;;5016516;28;20202;-81
2021/03/11 10:44:12;;;;;;;23.47;15.03;;;3.30;67.20;;;;;;5007285;28;20223;-82
2021/03/11 10:46:42;;;;;;;19.87;14.93;;;3.40;67.50;;;;;;5025660;28;20233;-82
2021/03/11 10:49:14;;;;;;;22.47;15.30;;;3.50;67.30;;;;;;5027791;28;20215;-83
2021/03/11 10:51:45;;;;;;;18.63;13.47;;;3.40;67.20;;;;;;5030598;28;20588;-81
2021/03/11 10:54:28;;;;;;;22.63;14.57;;;3.40;67.30;;;;;;5035967;28;20227;-82
2021/03/11 10:57:07;;;;;;;21.13;13.87;;;3.40;67.00;;;;;;4993022;28;20210;-82
2021/03/11 10:59:49;;;;;;;21.90;13.40;;;3.40;67.20;;;;;;5024411;28;20204;-83
2021/03/11 11:02:19;;;;;;;19.30;12.30;;;3.40;67.40;;;;;;5023212;28;20619;-84
2021/03/11 11:04:48;;;;;;;19.80;13.43;;;3.50;66.40;;;;;;5021711;28;20223;-83
2021/03/11 11:07:18;;;;;;;17.67;12.50;;;3.40;66.60;;;;;;5024009;28;20213;-82
2021/03/11 11:09:46;;;;;;;20.23;12.77;;;3.50;66.70;;;;;;5022420;28;20728;-84
2021/03/11 11:12:16;;;;;;;21.63;14.20;;;3.60;66.60;;;;;;5017111;28;20845;-81
2021/03/11 11:14:44;;;;;;;19.90;12.03;;;3.70;67.00;;;;;;5022162;28;20777;-82
2021/03/11 11:17:14;;;;;;;20.03;13.27;;;3.70;66.40;;;;;;5024766;28;20208;-82
2021/03/11 11:19:43;;;;;;;19.17;13.40;;;3.60;67.10;;;;;;5007828;28;20306;-82
2021/03/11 11:22:12;;;;;;;18.77;14.03;;;3.50;66.90;;;;;;5021405;28;20922;-80
2021/03/11 11:24:40;;;;;;;18.50;12.27;;;3.50;67.70;;;;;;5026350;28;20202;-83
2021/03/11 11:27:13;;;;;;;19.87;13.30;;;3.50;67.20;;;;;;5029319;28;20210;-83
2021/03/11 11:29:41;;;;;;;20.10;12.60;;;3.50;67.30;;;;;;5025472;28;20458;-80
2021/03/11 11:32:11;;;;;;;20.00;13.43;;;3.50;67.00;;;;;;5028792;28;20707;-81
2021/03/11 11:34:40;;;;;;;17.87;12.60;;;3.40;67.30;;;;;;5007283;28;20251;-83
2021/03/11 11:37:11;;;;;;;21.47;14.00;;;3.40;67.60;;;;;;5037575;28;20203;-83
2021/03/11 11:39:40;;;;;;;20.20;13.07;;;3.30;67.80;;;;;;5039452;28;20194;-84
2021/03/11 11:42:08;;;;;;;19.30;12.80;;;3.40;68.20;;;;;;5038946;28;20196;-82
2021/03/11 11:44:36;;;;;;;24.17;14.80;;;3.50;67.80;;;;;;5034283;28;20203;-83
2021/03/11 11:47:08;;;;;;;23.80;13.60;;;3.40;68.20;;;;;;5039699;28;20192;-80
2021/03/11 11:49:36;;;;;;;22.00;14.13;;;3.50;67.90;;;;;;5034268;28;20205;-82
2021/03/11 11:52:06;;;;;;;21.13;14.27;;;3.50;68.50;;;;;;5019066;28;20983;-82
2021/03/11 11:54:35;;;;;;;19.07;13.10;;;3.50;68.30;;;;;;5025996;28;20594;-83
2021/03/11 11:57:03;;;;;;;19.87;13.80;;;3.50;68.50;;;;;;5017085;28;20597;-81
2021/03/11 11:59:31;;;;;;;18.80;14.33;;;3.50;68.30;;;;;;5032612;28;20549;-82
2021/03/11 12:02:09;;;;;;;19.50;13.83;;;3.60;68.60;;;;;;4995118;28;20204;-81
2021/03/11 12:04:37;;;;;;;23.37;15.03;;;3.70;68.70;;;;;;5038892;28;20353;-81
2021/03/11 12:07:06;;;;;;;21.77;15.00;;;3.60;68.60;;;;;;5028345;28;20481;-82
2021/03/11 12:09:38;;;;;;;21.87;13.93;;;3.60;69.00;;;;;;5031693;28;20197;-81
2021/03/11 12:12:07;;;;;;;23.43;14.93;;;3.60;69.10;;;;;;5030868;28;20203;-82
2021/03/11 12:14:36;;;;;;;21.90;13.73;;;3.50;69.50;;;;;;5032427;28;20240;-82
2021/03/11 12:17:04;;;;;;;21.57;13.83;;;3.40;69.70;;;;;;5031884;28;20676;-82
2021/03/11 12:19:32;;;;;;;26.80;15.17;;;3.30;70.10;;;;;;5035318;28;20229;-81
2021/03/11 12:22:07;;;;;;;27.13;15.90;;;3.30;70.70;;;;;;5037681;28;20214;-82
2021/03/11 12:24:36;;;;;;;25.20;15.80;;;3.20;71.30;;;;;;5037118;28;20674;-81
2021/03/11 12:27:05;;;;;;;24.87;15.50;;;3.40;71.80;;;;;;5041111;28;20741;-86
2021/03/11 12:29:32;;;;;;;23.10;15.27;;;3.20;71.60;;;;;;5043396;28;20320;-82
2021/03/11 12:32:01;;;;;;;25.77;15.57;;;3.20;72.10;;;;;;5042827;28;20453;-84
2021/03/11 12:34:29;;;;;;;26.70;16.63;;;3.20;72.20;;;;;;5045047;28;20531;-83
2021/03/11 12:36:57;;;;;;;30.67;17.07;;;3.10;72.60;;;;;;5049906;28;20202;-81
2021/03/11 12:39:25;;;;;;;23.57;15.20;;;3.10;72.90;;;;;;5038934;28;20205;-83
2021/03/11 12:41:58;;;;;;;23.07;15.90;;;3.10;72.60;;;;;;5028418;28;20201;-83
2021/03/11 12:44:27;;;;;;;24.63;16.20;;;3.10;73.00;;;;;;5023500;28;20195;-82
2021/03/11 12:46:57;;;;;;;26.80;17.17;;;3.00;73.20;;;;;;5015371;28;20254;-82
2021/03/11 12:49:25;;;;;;;29.90;16.47;;;3.10;73.70;;;;;;5021046;28;20199;-81
2021/03/11 12:51:53;;;;;;;25.20;16.63;;;3.10;74.00;;;;;;5038680;28;20211;-80
2021/03/11 12:54:22;;;;;;;31.83;18.17;;;2.90;74.00;;;;;;5025704;28;20232;-82